McKinney's Hourly Summary for Tuesday, July 10, 2018
Hour Temp
(f)
RH
(%)
Solar Rad.
(MJ/m2)
Rainfall
(in)
Wind
(mph)
7/10/2018 12:00 AM 76 86 0 0 1.77
7/10/2018 1:00 AM 76 86 0 0 3.33
7/10/2018 2:00 AM 75 88 0 0 1.48
7/10/2018 3:00 AM 74 95 0 0 0.23
7/10/2018 4:00 AM 74 95 0 0 0.47
7/10/2018 5:00 AM 73 99 0 0 1.46
7/10/2018 6:00 AM 73 99 0 0 2.3
7/10/2018 7:00 AM 73 99 0.02 0 2.38
7/10/2018 8:00 AM 74 98 0.17 0 2.27
7/10/2018 9:00 AM 75 95 0.37 0 2.17
7/10/2018 10:00 AM 77 78 0.86 0 1.98
7/10/2018 11:00 AM 83 59 2.31 0 1.72
7/10/2018 12:00 PM 87 52 2.48 0 2.15
7/10/2018 1:00 PM 87 52 1.57 0 2.98
7/10/2018 2:00 PM 90 47 1.99 0 2.89
7/10/2018 3:00 PM 91 46 1.45 0 2.42
7/10/2018 4:00 PM 92 44 1.96 0 4.48
7/10/2018 5:00 PM 89 44 0.57 0 5.41
7/10/2018 6:00 PM 83 60 0.67 0 3.32
7/10/2018 7:00 PM 84 61 0.49 0 1.35
7/10/2018 8:00 PM 84 58 0.2 0 0.71
7/10/2018 9:00 PM 83 60 0.02 0 0.15
7/10/2018 10:00 PM 81 62 0 0 0.24
7/10/2018 11:00 PM 79 70 0 0 1.44
Data Summary 80 72 15.13 0.00 2.05